Time;durP1;ratioP1;P1;durP2;ratioP2;P2;SDS_P1;SDS_P2;PMS_P1;PMS_P2;Temp;Humidity;BMP_temperature;BMP_pressure;BME280_temperature;BME280_humidity;BME280_pressure;Samples;Min_cycle;Max_cycle;Signal;HPM_P1;HPM_P2
2022/01/08 00:01:55;;;;;;;7.20;1.48;;;2.30;99.90;;;;;;6186188;23;20068;-91
2022/01/08 00:04:21;;;;;;;6.28;1.70;;;2.30;99.90;;;;;;6190436;23;20018;-87
2022/01/08 00:06:46;;;;;;;5.67;1.57;;;2.30;99.90;;;;;;6168260;23;20048;-84
2022/01/08 00:09:12;;;;;;;5.87;1.53;;;2.30;99.90;;;;;;6186029;23;20017;-94
2022/01/08 00:11:42;;;;;;;7.23;1.53;;;2.30;99.90;;;;;;6159840;23;20092;-92
2022/01/08 00:14:09;;;;;;;7.38;2.00;;;2.30;99.90;;;;;;6185865;23;20087;-89
2022/01/08 00:21:56;;;;;;;6.80;1.60;;;2.20;99.90;;;;;;6125684;23;20029;-87
2022/01/08 00:24:22;;;;;;;7.20;1.70;;;2.30;99.90;;;;;;6076464;23;20029;-86
2022/01/08 00:26:48;;;;;;;10.73;1.83;;;2.20;99.90;;;;;;6076260;23;20018;-83
2022/01/08 00:29:14;;;;;;;10.37;1.90;;;2.20;99.90;;;;;;6100395;23;20014;-84
2022/01/08 00:31:40;;;;;;;5.33;1.30;;;2.20;99.90;;;;;;6100017;23;20028;-87
2022/01/08 00:34:47;;;;;;;6.38;1.30;;;2.20;99.90;;;;;;6099899;23;20057;-86
2022/01/08 00:37:37;;;;;;;6.57;1.38;;;2.30;99.90;;;;;;6100429;23;20018;-83
2022/01/08 00:40:07;;;;;;;6.75;1.45;;;2.30;99.90;;;;;;6100695;23;20069;-86
2022/01/08 00:42:34;;;;;;;7.18;1.67;;;2.30;99.90;;;;;;6101705;23;20304;-85
2022/01/08 00:44:59;;;;;;;5.13;1.60;;;2.30;99.90;;;;;;6127663;23;20018;-85
2022/01/08 00:47:25;;;;;;;7.37;1.37;;;2.30;99.90;;;;;;6101778;23;20052;-84
2022/01/08 00:49:51;;;;;;;5.85;1.15;;;2.30;99.90;;;;;;6101706;23;20018;-84
2022/01/08 00:52:17;;;;;;;7.80;1.48;;;2.30;99.90;;;;;;6101848;23;20022;-85
2022/01/08 00:54:48;;;;;;;6.67;1.47;;;2.30;99.90;;;;;;6077564;23;20097;-83
2022/01/08 00:57:14;;;;;;;7.13;1.40;;;2.30;99.90;;;;;;6127690;23;20249;-83
2022/01/08 00:59:40;;;;;;;6.50;1.45;;;2.40;99.90;;;;;;6077696;23;20085;-86
2022/01/08 01:02:05;;;;;;;9.47;1.40;;;2.30;99.90;;;;;;6127034;23;20037;-84
2022/01/08 01:04:31;;;;;;;7.50;1.40;;;2.30;99.90;;;;;;6127534;23;20014;-86
2022/01/08 01:06:57;;;;;;;8.50;1.60;;;2.30;99.90;;;;;;6127347;23;20344;-85
2022/01/08 01:09:23;;;;;;;8.57;2.15;;;2.30;99.90;;;;;;6077527;23;20022;-86
2022/01/08 01:11:48;;;;;;;4.67;1.40;;;2.30;99.90;;;;;;6102057;23;20017;-91
2022/01/08 01:14:14;;;;;;;6.50;1.67;;;2.30;99.90;;;;;;6128356;23;20028;-94
2022/01/08 01:16:40;;;;;;;5.40;1.40;;;2.20;99.90;;;;;;6102293;23;20080;-91
2022/01/08 01:19:06;;;;;;;6.43;1.52;;;2.20;99.90;;;;;;6127975;23;20045;-86
2022/01/08 01:21:32;;;;;;;8.30;2.07;;;2.20;99.90;;;;;;6127229;23;20348;-85
2022/01/08 01:23:59;;;;;;;7.30;1.60;;;2.20;99.90;;;;;;6127587;23;20025;-84
2022/01/08 01:26:28;;;;;;;10.57;2.35;;;2.20;99.90;;;;;;6101219;23;20346;-89
2022/01/08 01:47:44;;;;;;;8.32;2.50;;;2.10;99.90;;;;;;6127092;23;20037;-83
2022/01/08 01:50:10;;;;;;;10.13;2.75;;;2.10;99.90;;;;;;6127103;23;20348;-84
2022/01/08 01:52:36;;;;;;;7.35;3.10;;;2.10;99.90;;;;;;6100411;23;20487;-89
2022/01/08 01:55:03;;;;;;;9.80;2.53;;;2.10;99.90;;;;;;6127333;23;20343;-86
2022/01/08 01:57:29;;;;;;;;;;;2.10;99.90;;;;;;6101142;23;20050;-85
2022/01/08 01:59:54;;;;;;;7.70;2.90;;;2.10;99.90;;;;;;6101166;23;20342;-85
2022/01/08 02:04:56;;;;;;;7.80;2.72;;;2.10;99.90;;;;;;6126845;23;20033;-87
2022/01/08 02:08:13;;;;;;;5.95;2.83;;;2.20;99.90;;;;;;6125482;23;20026;-87
2022/01/08 02:10:41;;;;;;;7.40;2.20;;;2.20;99.90;;;;;;6101286;23;20025;-87
2022/01/08 02:13:06;;;;;;;6.63;2.72;;;2.20;99.90;;;;;;6126893;23;20029;-85
2022/01/08 02:15:32;;;;;;;6.60;2.80;;;2.20;99.90;;;;;;6100871;23;20436;-87
2022/01/08 02:17:58;;;;;;;5.47;2.45;;;2.20;99.90;;;;;;6100879;23;20064;-86
2022/01/08 02:20:23;;;;;;;6.25;2.58;;;2.20;99.90;;;;;;6100710;23;20014;-87
2022/01/08 02:22:49;;;;;;;8.55;2.58;;;2.20;99.90;;;;;;6152127;23;20071;-89
2022/01/08 02:25:21;;;;;;;11.05;2.92;;;2.20;99.90;;;;;;6136186;23;20375;-89
2022/01/08 02:27:47;;;;;;;8.27;2.50;;;2.30;99.90;;;;;;6161178;23;20017;-89
2022/01/08 02:30:13;;;;;;;9.38;2.78;;;2.30;99.90;;;;;;6160410;23;20028;-88
2022/01/08 02:32:41;;;;;;;9.27;2.67;;;2.30;99.90;;;;;;6160129;23;20017;-89
2022/01/08 02:35:07;;;;;;;6.65;2.30;;;2.30;99.90;;;;;;6160459;23;20048;-89
2022/01/08 02:37:34;;;;;;;6.40;2.05;;;2.40;99.90;;;;;;6160488;23;20018;-89
2022/01/08 02:40:02;;;;;;;;;;;2.40;99.90;;;;;;6160940;23;20013;-90
2022/01/08 02:42:36;;;;;;;6.38;1.95;;;2.40;99.90;;;;;;6160461;23;19950;-89
2022/01/08 02:45:03;;;;;;;10.00;2.25;;;2.30;99.90;;;;;;6160167;23;20009;-88
2022/01/08 02:47:29;;;;;;;5.03;1.83;;;2.40;99.90;;;;;;6160060;23;20079;-88
2022/01/08 02:49:55;;;;;;;9.00;2.38;;;2.40;99.90;;;;;;6160148;23;20014;-88
2022/01/08 02:52:23;;;;;;;5.50;1.93;;;2.40;99.90;;;;;;6160106;23;20025;-89
2022/01/08 02:54:50;;;;;;;6.07;1.52;;;2.40;99.90;;;;;;6160122;23;20092;-88
2022/01/08 02:57:15;;;;;;;5.47;1.48;;;2.30;99.90;;;;;;6160212;23;20021;-88
2022/01/08 02:59:41;;;;;;;9.63;1.60;;;2.30;99.90;;;;;;6159952;23;20020;-88
2022/01/08 03:02:07;;;;;;;7.20;1.40;;;2.30;99.90;;;;;;6159868;23;20017;-88
2022/01/08 03:04:32;;;;;;;5.57;1.73;;;2.30;99.90;;;;;;6160127;23;20064;-88
2022/01/08 03:06:58;;;;;;;4.73;1.20;;;2.30;99.90;;;;;;6159815;23;20025;-88
2022/01/08 03:09:26;;;;;;;5.03;1.23;;;2.30;99.90;;;;;;6160523;23;20024;-89
2022/01/08 03:11:51;;;;;;;7.85;1.50;;;2.30;99.90;;;;;;6160205;23;20017;-88
2022/01/08 03:14:17;;;;;;;6.40;1.40;;;2.30;99.90;;;;;;6160313;23;20036;-88
2022/01/08 03:16:43;;;;;;;5.03;1.50;;;2.30;99.90;;;;;;6159982;23;20021;-88
2022/01/08 03:19:09;;;;;;;7.13;1.20;;;2.20;99.90;;;;;;6159873;23;20013;-89
2022/01/08 03:21:39;;;;;;;3.70;1.30;;;2.30;99.90;;;;;;6135133;23;20350;-88
2022/01/08 03:24:07;;;;;;;5.82;1.20;;;2.20;99.90;;;;;;6159818;23;20024;-88
2022/01/08 03:26:34;;;;;;;6.68;1.20;;;2.20;99.90;;;;;;6159776;23;20052;-88
2022/01/08 03:29:00;;;;;;;;;;;2.10;99.90;;;;;;6160223;23;20009;-88
2022/01/08 03:31:26;;;;;;;5.78;1.30;;;2.20;99.90;;;;;;6159681;23;20100;-88
2022/01/08 03:33:53;;;;;;;5.38;1.20;;;2.10;99.90;;;;;;6160024;23;20506;-89
2022/01/08 03:36:21;;;;;;;7.57;1.13;;;2.20;99.90;;;;;;6160182;23;20092;-89
2022/01/08 03:38:47;;;;;;;6.22;1.42;;;2.10;99.90;;;;;;6160169;23;20386;-90
2022/01/08 03:41:13;;;;;;;5.00;1.20;;;2.10;99.90;;;;;;6159800;23;20121;-90
2022/01/08 03:43:39;;;;;;;4.37;1.10;;;2.10;99.90;;;;;;6160111;23;20013;-91
2022/01/08 03:46:05;;;;;;;6.23;1.20;;;2.10;99.90;;;;;;6159897;23;20021;-89
2022/01/08 03:48:44;;;;;;;9.52;1.33;;;2.10;99.90;;;;;;6159882;23;20028;-89
2022/01/08 03:51:11;;;;;;;5.70;1.23;;;2.10;99.90;;;;;;6160012;23;20020;-89
2022/01/08 03:53:37;;;;;;;;;;;2.10;99.90;;;;;;6160347;23;20017;-89
2022/01/08 03:56:03;;;;;;;5.47;1.10;;;2.10;99.90;;;;;;6184768;23;19948;-89
2022/01/08 03:58:28;;;;;;;4.90;1.30;;;2.10;99.90;;;;;;6159962;23;20024;-89
2022/01/08 04:00:54;;;;;;;4.43;1.05;;;2.10;99.90;;;;;;6159857;23;20252;-89
2022/01/08 04:03:20;;;;;;;6.13;1.20;;;2.10;99.90;;;;;;6160009;23;20446;-89
2022/01/08 04:05:50;;;;;;;3.33;0.95;;;2.00;99.90;;;;;;6159773;23;20013;-88
2022/01/08 04:08:17;;;;;;;4.78;1.23;;;2.00;99.90;;;;;;6159593;23;20071;-88
2022/01/08 04:10:43;;;;;;;5.03;1.33;;;2.00;99.90;;;;;;6159958;23;20017;-89
2022/01/08 04:13:15;;;;;;;3.90;0.90;;;2.10;99.90;;;;;;6159770;23;20075;-88
2022/01/08 04:15:43;;;;;;;8.00;1.30;;;2.00;99.90;;;;;;6160972;23;20426;-88
2022/01/08 04:18:10;;;;;;;6.28;1.20;;;2.00;99.90;;;;;;6161656;23;20040;-89
2022/01/08 04:20:50;;;;;;;5.60;1.02;;;2.00;99.90;;;;;;6161577;23;20013;-89
2022/01/08 04:23:20;;;;;;;2.72;1.20;;;2.00;99.90;;;;;;6161462;23;20021;-88
2022/01/08 04:25:47;;;;;;;5.75;1.13;;;2.00;99.90;;;;;;6161061;23;20056;-88
2022/01/08 04:28:14;;;;;;;5.43;1.08;;;2.00;99.90;;;;;;6161503;23;20024;-89
2022/01/08 04:30:42;;;;;;;5.72;1.30;;;2.00;99.90;;;;;;6161643;23;20389;-90
2022/01/08 04:33:08;;;;;;;6.57;1.38;;;2.00;99.90;;;;;;6161581;23;20012;-89
2022/01/08 04:35:34;;;;;;;6.28;1.25;;;2.00;99.90;;;;;;6161591;23;20469;-89
2022/01/08 04:38:03;;;;;;;4.80;1.10;;;2.00;99.90;;;;;;6161624;23;20017;-90
2022/01/08 04:40:29;;;;;;;6.03;1.00;;;2.00;99.90;;;;;;6161355;23;20021;-89
2022/01/08 04:42:55;;;;;;;4.47;1.05;;;1.90;99.90;;;;;;6161348;23;20019;-90
2022/01/08 04:45:22;;;;;;;3.83;0.80;;;2.00;99.90;;;;;;6161234;23;20021;-89
2022/01/08 04:47:48;;;;;;;9.88;1.33;;;2.00;99.90;;;;;;6161043;23;20021;-90
2022/01/08 04:50:13;;;;;;;6.88;1.33;;;2.00;99.90;;;;;;6161253;23;20120;-89
2022/01/08 04:52:40;;;;;;;4.38;1.17;;;2.00;99.90;;;;;;6161397;23;20036;-89
2022/01/08 04:55:06;;;;;;;5.68;1.33;;;2.00;99.90;;;;;;6161311;23;20013;-89
2022/01/08 04:57:32;;;;;;;7.88;1.63;;;2.00;99.90;;;;;;6161310;23;20104;-89
2022/01/08 04:59:57;;;;;;;6.30;1.30;;;2.10;99.90;;;;;;6161171;23;20005;-89
2022/01/08 05:02:23;;;;;;;8.40;1.50;;;2.10;99.90;;;;;;6136774;23;20087;-89
2022/01/08 05:04:49;;;;;;;5.87;1.33;;;2.20;99.90;;;;;;6161185;23;20108;-89
2022/01/08 05:07:14;;;;;;;9.65;1.52;;;2.20;99.90;;;;;;6161222;23;20359;-89
2022/01/08 05:09:40;;;;;;;7.80;1.30;;;2.20;99.90;;;;;;6160969;23;20036;-89
2022/01/08 05:12:06;;;;;;;6.03;1.50;;;2.30;99.90;;;;;;6161042;23;20017;-89
2022/01/08 05:14:32;;;;;;;8.13;1.48;;;2.30;99.90;;;;;;6161037;23;20532;-89
2022/01/08 05:17:00;;;;;;;4.47;1.30;;;2.30;99.90;;;;;;6160685;23;20017;-88
2022/01/08 05:22:25;;;;;;;5.18;1.50;;;2.30;99.90;;;;;;6141899;23;20054;-89
2022/01/08 05:24:51;;;;;;;8.80;1.45;;;2.30;99.90;;;;;;6160728;23;20021;-89
2022/01/08 05:27:17;;;;;;;7.70;1.73;;;2.20;99.90;;;;;;6135594;23;20028;-88
2022/01/08 05:29:44;;;;;;;11.30;5.13;;;2.30;99.90;;;;;;6160579;23;20048;-88
2022/01/08 05:32:16;;;;;;;7.60;1.58;;;2.20;99.90;;;;;;6160428;23;20444;-87
2022/01/08 05:34:45;;;;;;;8.07;2.17;;;2.20;99.90;;;;;;6160607;23;20052;-89
2022/01/08 05:37:11;;;;;;;7.35;1.73;;;2.20;99.90;;;;;;6160734;23;20021;-88
2022/01/08 05:39:37;;;;;;;5.87;1.20;;;2.20;99.90;;;;;;6160859;23;20017;-88
2022/01/08 05:42:04;;;;;;;6.72;1.67;;;2.20;99.90;;;;;;6161111;23;20398;-89
2022/01/08 05:44:29;;;;;;;6.28;1.35;;;2.20;99.90;;;;;;6160715;23;20024;-89
2022/01/08 05:46:55;;;;;;;4.90;1.30;;;2.10;99.90;;;;;;6160548;23;20021;-89
2022/01/08 05:49:21;;;;;;;6.45;1.50;;;2.10;99.90;;;;;;6160617;23;20017;-89
2022/01/08 05:51:46;;;;;;;10.65;1.88;;;2.10;99.90;;;;;;6160262;23;20021;-88
2022/01/08 05:54:12;;;;;;;5.03;1.60;;;2.10;99.90;;;;;;6160614;23;20013;-88
2022/01/08 05:56:38;;;;;;;7.45;1.52;;;2.10;99.90;;;;;;6160570;23;20016;-88
2022/01/08 05:59:04;;;;;;;5.50;1.45;;;2.10;99.90;;;;;;6160467;23;20013;-88
2022/01/08 06:01:32;;;;;;;8.70;1.60;;;2.10;99.90;;;;;;6160127;23;20017;-88
2022/01/08 06:03:57;;;;;;;5.63;1.33;;;2.00;99.90;;;;;;6160285;23;20025;-89
2022/01/08 06:06:23;;;;;;;8.38;1.60;;;2.10;99.90;;;;;;6160278;23;20021;-88
2022/01/08 06:08:49;;;;;;;6.28;1.33;;;2.10;99.90;;;;;;6160416;23;20450;-88
2022/01/08 06:11:14;;;;;;;6.40;1.43;;;2.00;99.90;;;;;;6160282;23;20034;-88
2022/01/08 06:13:40;;;;;;;5.90;1.35;;;2.10;99.90;;;;;;6160233;23;20017;-89
2022/01/08 06:16:06;;;;;;;5.60;1.40;;;2.10;99.90;;;;;;6160229;23;20104;-89
2022/01/08 06:18:32;;;;;;;7.97;1.70;;;2.00;99.90;;;;;;6160265;23;20017;-88
2022/01/08 06:20:59;;;;;;;8.70;1.73;;;2.10;99.90;;;;;;6160270;23;20501;-89
2022/01/08 06:23:26;;;;;;;5.57;1.80;;;2.10;99.90;;;;;;6159565;23;20021;-88
2022/01/08 06:25:52;;;;;;;7.22;2.25;;;2.10;99.90;;;;;;6135689;23;20028;-88
2022/01/08 06:28:18;;;;;;;5.93;1.50;;;2.10;99.90;;;;;;6160019;23;20017;-88
2022/01/08 06:30:43;;;;;;;8.27;1.80;;;2.10;99.90;;;;;;6160317;23;20458;-89
2022/01/08 06:33:09;;;;;;;8.02;1.60;;;2.10;99.90;;;;;;6160076;23;20028;-88
2022/01/08 06:35:35;;;;;;;8.00;1.73;;;2.10;99.90;;;;;;6160243;23;20544;-89
2022/01/08 06:38:00;;;;;;;8.68;1.85;;;2.10;99.90;;;;;;6160186;23;20013;-89
2022/01/08 06:40:26;;;;;;;6.83;1.67;;;2.10;99.90;;;;;;6135706;23;20071;-88
2022/01/08 06:42:52;;;;;;;6.83;2.00;;;2.10;99.90;;;;;;6159782;23;20025;-89
2022/01/08 06:45:18;;;;;;;7.03;1.70;;;2.10;99.90;;;;;;6160046;23;20096;-88
2022/01/08 06:47:45;;;;;;;8.13;2.30;;;2.10;99.90;;;;;;6135212;23;20098;-89
2022/01/08 06:50:12;;;;;;;13.52;2.63;;;2.10;99.90;;;;;;6160005;23;20056;-88
2022/01/08 06:52:38;;;;;;;10.52;2.53;;;2.10;99.90;;;;;;6160034;23;20028;-88
2022/01/08 06:55:05;;;;;;;8.43;2.55;;;2.10;99.90;;;;;;6159996;23;20013;-88
2022/01/08 06:57:30;;;;;;;10.32;3.03;;;2.10;99.90;;;;;;6159854;23;20443;-88
2022/01/08 06:59:56;;;;;;;8.70;2.47;;;2.10;99.90;;;;;;6135198;23;20020;-88
2022/01/08 07:02:22;;;;;;;8.05;3.03;;;2.10;99.90;;;;;;6159942;23;20096;-88
2022/01/08 07:04:48;;;;;;;8.35;2.75;;;2.00;99.90;;;;;;6159498;23;20017;-88
2022/01/08 07:07:13;;;;;;;9.70;3.00;;;2.00;99.90;;;;;;6159613;23;20024;-89
2022/01/08 07:09:39;;;;;;;11.33;3.70;;;1.90;99.90;;;;;;6159830;23;20316;-89
2022/01/08 07:12:05;;;;;;;10.50;3.10;;;2.00;99.90;;;;;;6159849;23;20029;-88
2022/01/08 07:14:31;;;;;;;15.30;3.70;;;1.90;99.90;;;;;;6159667;23;20013;-88
2022/01/08 07:16:57;;;;;;;9.35;3.25;;;1.90;99.90;;;;;;6159587;23;20096;-89
2022/01/08 07:19:23;;;;;;;11.52;3.20;;;1.90;99.90;;;;;;6160012;23;20023;-88
2022/01/08 07:21:49;;;;;;;10.60;3.93;;;1.90;99.90;;;;;;6159872;23;20017;-89
2022/01/08 07:24:15;;;;;;;13.15;3.88;;;1.90;99.90;;;;;;6159831;23;20017;-89
2022/01/08 07:26:41;;;;;;;15.70;4.20;;;1.90;99.90;;;;;;6135109;23;20017;-89
2022/01/08 07:29:07;;;;;;;11.85;3.92;;;1.90;99.90;;;;;;6159938;23;20052;-89
2022/01/08 07:31:35;;;;;;;9.90;3.97;;;1.90;99.90;;;;;;6159581;23;20040;-89
2022/01/08 07:34:01;;;;;;;10.48;3.58;;;1.90;99.90;;;;;;6159776;23;20017;-90
2022/01/08 07:36:27;;;;;;;13.27;4.38;;;1.90;99.90;;;;;;6159737;23;20013;-90
2022/01/08 07:38:52;;;;;;;11.25;4.35;;;2.00;99.90;;;;;;6160079;23;20021;-91
2022/01/08 07:41:18;;;;;;;14.13;4.68;;;2.00;99.90;;;;;;6135360;23;20063;-89
2022/01/08 07:43:44;;;;;;;23.23;9.30;;;2.00;99.90;;;;;;6159803;23;20060;-90
2022/01/08 07:46:09;;;;;;;40.83;15.77;;;2.00;99.90;;;;;;6159590;23;20534;-90
2022/01/08 07:48:35;;;;;;;23.53;7.67;;;2.00;99.90;;;;;;6159808;23;20017;-90
2022/01/08 07:51:16;;;;;;;16.73;6.83;;;2.00;99.90;;;;;;6161425;23;20529;-88
2022/01/08 07:53:42;;;;;;;13.75;5.00;;;2.00;99.90;;;;;;6161408;23;20017;-88
2022/01/08 07:56:08;;;;;;;19.77;5.05;;;2.00;99.90;;;;;;6161531;23;20430;-91
2022/01/08 07:58:33;;;;;;;11.83;4.40;;;2.00;99.90;;;;;;6161243;23;20021;-88
2022/01/08 08:00:59;;;;;;;10.57;3.60;;;2.00;99.90;;;;;;6161342;23;20013;-89
2022/01/08 08:03:25;;;;;;;19.83;5.60;;;2.00;99.90;;;;;;6161662;23;20107;-89
2022/01/08 08:06:00;;;;;;;9.50;4.35;;;2.00;99.90;;;;;;6161263;23;20410;-90
2022/01/08 08:08:57;;;;;;;14.23;3.97;;;2.00;99.90;;;;;;6161586;23;20137;-88
2022/01/08 08:11:32;;;;;;;9.52;3.70;;;2.00;99.90;;;;;;6136662;23;20024;-88
2022/01/08 08:13:57;;;;;;;10.85;3.90;;;2.00;99.90;;;;;;6160919;23;20017;-87
2022/01/08 08:16:23;;;;;;;13.45;4.82;;;2.00;99.90;;;;;;6160917;23;20477;-87
2022/01/08 08:18:49;;;;;;;11.23;3.88;;;2.00;99.90;;;;;;6160831;23;20048;-86
2022/01/08 08:21:27;;;;;;;12.98;3.75;;;2.00;99.90;;;;;;6187413;23;20021;-89
2022/01/08 08:23:53;;;;;;;11.15;4.07;;;2.00;99.90;;;;;;6161151;23;20017;-90
2022/01/08 08:26:18;;;;;;;10.15;3.95;;;2.00;99.90;;;;;;6160917;23;20021;-89
2022/01/08 08:28:44;;;;;;;9.13;3.90;;;2.00;99.90;;;;;;6136309;23;20159;-88
2022/01/08 08:31:16;;;;;;;9.82;3.30;;;2.10;99.90;;;;;;6160754;23;20024;-87
2022/01/08 08:33:42;;;;;;;9.65;3.63;;;2.10;99.90;;;;;;6136304;23;20013;-87
2022/01/08 08:36:07;;;;;;;10.82;4.00;;;2.10;99.90;;;;;;6160588;23;20095;-87
2022/01/08 08:38:33;;;;;;;14.38;4.65;;;2.10;99.90;;;;;;6160722;23;20013;-88
2022/01/08 08:40:59;;;;;;;17.90;4.60;;;2.10;99.90;;;;;;6160613;23;20021;-87
2022/01/08 08:43:25;;;;;;;10.90;3.93;;;2.10;99.90;;;;;;6160356;23;20025;-90
2022/01/08 08:46:13;;;;;;;17.37;4.20;;;2.20;99.90;;;;;;6160870;23;20013;-90
2022/01/08 08:49:32;;;;;;;13.27;4.05;;;2.20;99.90;;;;;;6186573;23;20386;-90
2022/01/08 08:51:58;;;;;;;12.68;3.40;;;2.20;99.90;;;;;;6158410;23;20443;-90
2022/01/08 08:54:24;;;;;;;12.30;3.92;;;2.30;99.90;;;;;;6183492;23;20017;-88
2022/01/08 08:56:49;;;;;;;10.07;3.37;;;2.30;99.90;;;;;;6135088;23;20473;-88
2022/01/08 08:59:15;;;;;;;12.20;3.70;;;2.30;99.90;;;;;;6159800;23;20505;-88
2022/01/08 09:01:41;;;;;;;10.13;3.37;;;2.30;99.90;;;;;;6185142;23;20096;-89
2022/01/08 09:04:07;;;;;;;15.10;3.83;;;2.40;99.90;;;;;;6135829;23;20133;-88
2022/01/08 09:06:32;;;;;;;10.83;3.40;;;2.30;99.90;;;;;;6160178;23;20017;-89
2022/01/08 09:08:59;;;;;;;10.25;3.20;;;2.30;99.90;;;;;;6159990;23;20020;-90
2022/01/08 09:11:25;;;;;;;10.38;3.30;;;2.30;99.90;;;;;;6160645;23;20028;-88
2022/01/08 09:13:51;;;;;;;12.20;3.72;;;2.30;99.90;;;;;;6160060;23;20017;-84
2022/01/08 09:16:17;;;;;;;10.83;3.80;;;2.40;99.90;;;;;;6160118;23;20015;-87
2022/01/08 09:18:43;;;;;;;8.40;3.17;;;2.40;99.90;;;;;;6160109;23;20013;-87
2022/01/08 09:21:10;;;;;;;12.27;3.53;;;2.40;99.90;;;;;;6135756;23;20025;-88
2022/01/08 09:23:37;;;;;;;9.70;3.40;;;2.40;99.90;;;;;;6186372;23;20048;-87
2022/01/08 09:26:03;;;;;;;14.77;4.15;;;2.50;99.90;;;;;;6160197;23;20032;-87
2022/01/08 09:28:30;;;;;;;11.63;3.40;;;2.50;99.90;;;;;;6160087;23;20109;-88
2022/01/08 09:30:56;;;;;;;10.93;4.13;;;2.50;99.90;;;;;;6186536;23;20129;-88
2022/01/08 09:33:23;;;;;;;13.75;3.58;;;2.60;99.90;;;;;;6159997;23;20024;-87
2022/01/08 09:35:50;;;;;;;9.60;3.63;;;2.60;99.90;;;;;;6160340;23;20044;-88
2022/01/08 09:38:16;;;;;;;12.90;3.95;;;2.70;99.90;;;;;;6160885;23;20017;-89
2022/01/08 09:40:42;;;;;;;12.47;3.93;;;2.70;99.90;;;;;;6160535;23;20023;-87
2022/01/08 09:43:07;;;;;;;12.80;4.37;;;2.70;99.90;;;;;;6160141;23;20028;-87
2022/01/08 09:45:33;;;;;;;13.60;4.07;;;2.80;99.90;;;;;;6160371;23;20362;-89
2022/01/08 09:47:59;;;;;;;13.00;3.70;;;2.80;99.90;;;;;;6159940;23;20021;-87
2022/01/08 09:50:26;;;;;;;11.98;3.20;;;2.80;99.90;;;;;;6160310;23;20020;-88
2022/01/08 09:52:57;;;;;;;9.50;3.90;;;2.80;99.90;;;;;;6135464;23;20017;-87
2022/01/08 09:55:24;;;;;;;13.15;3.80;;;2.80;99.90;;;;;;6160209;23;20423;-87
2022/01/08 09:57:51;;;;;;;12.75;3.80;;;2.80;99.90;;;;;;6135603;23;20028;-88
2022/01/08 10:00:17;;;;;;;13.85;3.97;;;2.80;99.90;;;;;;6160140;23;20013;-87
2022/01/08 10:02:46;;;;;;;12.65;3.85;;;2.80;99.90;;;;;;6159923;23;20017;-88
2022/01/08 10:05:17;;;;;;;13.48;3.60;;;2.90;99.90;;;;;;6135276;23;20014;-87
2022/01/08 10:07:56;;;;;;;10.88;3.30;;;2.90;99.90;;;;;;6135400;23;20469;-88
2022/01/08 10:10:24;;;;;;;12.48;3.90;;;2.90;99.90;;;;;;6135154;23;20056;-87
2022/01/08 10:12:54;;;;;;;12.85;4.32;;;3.00;99.90;;;;;;6159609;23;20017;-88
2022/01/08 10:18:33;;;;;;;10.93;3.50;;;3.00;99.90;;;;;;6159621;23;20028;-86
2022/01/08 10:21:01;;;;;;;13.02;4.05;;;3.00;99.90;;;;;;6160052;23;20141;-87
2022/01/08 10:23:30;;;;;;;12.30;4.03;;;3.10;99.90;;;;;;6159261;23;20021;-86
2022/01/08 10:26:13;;;;;;;10.05;3.42;;;3.10;99.90;;;;;;6183062;23;20029;-87
2022/01/08 10:28:56;;;;;;;12.02;3.35;;;3.10;99.90;;;;;;6159999;23;20028;-88
2022/01/08 10:31:39;;;;;;;10.88;3.10;;;3.10;99.90;;;;;;6186193;23;20328;-87
2022/01/08 10:34:10;;;;;;;15.10;3.60;;;3.10;99.90;;;;;;6185993;23;20087;-87
2022/01/08 10:36:49;;;;;;;10.77;3.55;;;3.20;99.90;;;;;;6185982;23;20398;-85
2022/01/08 10:39:33;;;;;;;12.52;3.13;;;3.20;99.90;;;;;;6135067;23;20035;-87
2022/01/08 10:42:01;;;;;;;11.63;4.03;;;3.20;99.90;;;;;;6186021;23;20021;-87
2022/01/08 10:44:30;;;;;;;11.18;3.45;;;3.20;99.90;;;;;;6160119;23;20014;-89
2022/01/08 10:47:02;;;;;;;13.18;3.60;;;3.30;99.90;;;;;;6159874;23;20055;-88
2022/01/08 10:49:30;;;;;;;12.75;3.83;;;3.30;99.90;;;;;;6159956;23;20045;-88
2022/01/08 10:52:07;;;;;;;14.23;4.22;;;3.30;99.90;;;;;;6160010;23;20047;-87
2022/01/08 10:54:35;;;;;;;14.05;3.80;;;3.30;99.90;;;;;;6159759;23;20439;-87
2022/01/08 10:57:04;;;;;;;11.48;3.45;;;3.30;99.90;;;;;;6159641;23;20443;-88
2022/01/08 10:59:31;;;;;;;14.65;4.47;;;3.30;99.90;;;;;;6159450;23;20028;-88
2022/01/08 11:02:00;;;;;;;11.60;4.22;;;3.30;99.90;;;;;;6159201;23;20017;-87
2022/01/08 11:04:43;;;;;;;13.35;4.45;;;3.30;99.90;;;;;;6159177;23;20088;-86
2022/01/08 11:07:10;;;;;;;14.93;5.20;;;3.30;99.90;;;;;;6134830;23;20024;-89
2022/01/08 11:09:38;;;;;;;13.23;4.75;;;3.30;99.90;;;;;;6159285;23;20020;-88
2022/01/08 11:12:07;;;;;;;16.88;4.97;;;3.30;99.90;;;;;;6158945;23;20021;-88
2022/01/08 11:15:35;;;;;;;14.35;5.43;;;3.30;99.90;;;;;;6159321;23;20024;-88
2022/01/08 11:17:34;;;;;;;14.45;5.32;;;3.30;99.90;;;;;;6139358;23;20096;-90
2022/01/08 11:20:05;;;;;;;12.50;5.30;;;3.30;99.90;;;;;;6159556;23;20021;-89
2022/01/08 11:22:33;;;;;;;14.00;4.90;;;3.30;99.90;;;;;;6135242;23;20017;-90
2022/01/08 11:25:05;;;;;;;15.68;4.70;;;3.30;99.90;;;;;;6159498;23;20104;-88
2022/01/08 11:27:52;;;;;;;10.82;4.03;;;3.30;99.90;;;;;;6134800;23;20133;-89
2022/01/08 11:30:24;;;;;;;15.63;5.50;;;3.30;99.90;;;;;;6135008;23;20020;-91
2022/01/08 11:32:54;;;;;;;12.30;5.35;;;3.40;99.90;;;;;;6159612;23;20014;-88
2022/01/08 11:35:21;;;;;;;15.15;5.03;;;3.30;99.90;;;;;;6159315;23;20114;-88
2022/01/08 11:37:49;;;;;;;13.55;6.10;;;3.40;99.90;;;;;;6159130;23;20017;-89
2022/01/08 11:40:20;;;;;;;16.20;5.72;;;3.40;99.90;;;;;;6159486;23;20028;-90
2022/01/08 11:42:46;;;;;;;16.80;5.85;;;3.40;99.90;;;;;;6159498;23;20089;-89
2022/01/08 11:45:21;;;;;;;13.75;6.25;;;3.40;99.90;;;;;;6159427;23;20021;-88
2022/01/08 11:47:50;;;;;;;16.77;6.25;;;3.50;99.90;;;;;;6159536;23;20285;-88
2022/01/08 11:50:24;;;;;;;14.98;6.05;;;3.50;99.90;;;;;;6159359;23;20047;-88
2022/01/08 11:53:19;;;;;;;12.75;6.05;;;3.50;99.90;;;;;;6159114;23;20132;-89
2022/01/08 11:55:50;;;;;;;16.08;6.38;;;3.50;99.90;;;;;;6134874;23;20017;-88
2022/01/08 11:59:00;;;;;;;12.90;6.00;;;3.60;99.90;;;;;;6159413;23;20139;-87
2022/01/08 12:01:26;;;;;;;13.00;6.13;;;3.60;99.90;;;;;;6149721;23;20021;-89
2022/01/08 12:03:52;;;;;;;13.57;6.90;;;3.60;99.90;;;;;;6159135;23;20013;-88
2022/01/08 12:06:54;;;;;;;13.70;5.78;;;3.60;99.90;;;;;;6158972;23;20442;-88
2022/01/08 12:09:21;;;;;;;14.70;6.15;;;3.60;99.90;;;;;;6179687;23;20025;-89
2022/01/08 12:11:47;;;;;;;16.33;6.63;;;3.70;99.90;;;;;;6134526;23;20013;-88
2022/01/08 12:14:20;;;;;;;17.73;6.23;;;3.70;99.90;;;;;;6159379;23;20099;-89
2022/01/08 12:16:48;;;;;;;12.63;6.25;;;3.60;99.90;;;;;;6134656;23;20063;-87
2022/01/08 12:19:53;;;;;;;12.02;6.32;;;3.60;99.90;;;;;;6159025;23;20096;-88
2022/01/08 12:22:19;;;;;;;11.50;6.00;;;3.70;99.90;;;;;;6129202;23;20013;-89
2022/01/08 12:24:49;;;;;;;14.50;6.57;;;3.60;99.90;;;;;;6159041;23;20485;-89
2022/01/08 12:27:33;;;;;;;17.25;6.57;;;3.70;99.90;;;;;;6157236;23;20017;-89
2022/01/08 12:30:00;;;;;;;14.63;7.28;;;3.70;99.90;;;;;;6134440;23;20023;-90
2022/01/08 12:32:38;;;;;;;14.30;6.82;;;3.70;99.90;;;;;;6159252;23;20459;-90
2022/01/08 12:35:19;;;;;;;15.27;7.00;;;3.70;99.90;;;;;;6159236;23;20013;-90
2022/01/08 12:37:56;;;;;;;13.40;7.10;;;3.70;99.90;;;;;;6160837;23;20049;-90
2022/01/08 12:40:41;;;;;;;18.77;7.93;;;3.80;99.90;;;;;;6158685;23;20324;-89
2022/01/08 12:43:30;;;;;;;14.50;7.80;;;3.70;99.90;;;;;;6158384;23;20028;-88
2022/01/08 12:46:17;;;;;;;20.35;8.35;;;3.80;99.90;;;;;;6160742;23;20021;-90
2022/01/08 12:49:09;;;;;;;16.25;8.90;;;3.80;99.90;;;;;;6160936;23;20017;-87
2022/01/08 12:51:53;;;;;;;20.17;9.45;;;3.80;99.90;;;;;;6136721;23;20021;-90
2022/01/08 12:54:21;;;;;;;20.25;9.68;;;3.80;99.90;;;;;;6160936;23;20017;-89
2022/01/08 12:56:51;;;;;;;18.33;10.20;;;3.80;99.90;;;;;;6136121;23;20017;-89
2022/01/08 12:59:18;;;;;;;21.27;10.82;;;3.80;99.90;;;;;;6160371;23;20017;-87
2022/01/08 13:01:45;;;;;;;;;;;3.80;99.90;;;;;;6161229;23;20013;-90
2022/01/08 13:04:16;;;;;;;17.23;11.57;;;3.80;99.90;;;;;;6160496;23;19916;-89
2022/01/08 13:06:44;;;;;;;21.65;11.68;;;3.80;99.90;;;;;;6160569;23;20017;-88
2022/01/08 13:09:12;;;;;;;18.23;11.25;;;3.80;99.90;;;;;;6135646;23;20017;-90
2022/01/08 13:11:40;;;;;;;21.00;11.85;;;3.80;99.90;;;;;;6160898;23;20017;-89
2022/01/08 13:14:14;;;;;;;18.63;11.55;;;3.80;99.90;;;;;;6160795;23;20017;-89
2022/01/08 13:16:52;;;;;;;21.13;11.98;;;3.80;99.90;;;;;;6160678;23;20454;-89
2022/01/08 13:19:26;;;;;;;18.40;11.85;;;3.90;99.90;;;;;;6160295;23;20035;-89
2022/01/08 13:23:05;;;;;;;17.17;11.63;;;3.90;99.90;;;;;;6160386;23;20455;-89
2022/01/08 13:26:06;;;;;;;19.83;12.30;;;3.80;99.90;;;;;;6070845;23;20026;-88
2022/01/08 13:28:50;;;;;;;19.45;12.32;;;3.80;99.90;;;;;;6078810;23;20028;-89
2022/01/08 13:31:18;;;;;;;20.33;12.00;;;3.80;99.90;;;;;;6135752;23;20017;-89
2022/01/08 13:33:55;;;;;;;20.13;13.35;;;3.80;99.90;;;;;;6186672;23;20013;-88
2022/01/08 13:36:24;;;;;;;20.70;13.45;;;3.80;99.90;;;;;;6157403;23;20021;-88
2022/01/08 13:38:52;;;;;;;23.05;13.88;;;3.80;99.90;;;;;;6159835;23;20013;-88